createdAt,value
2023-01-11T00:00:45.222Z,9.00
2023-01-11T00:03:13.540Z,9.00
2023-01-11T00:05:42.137Z,9.00
2023-01-11T00:08:10.983Z,9.00
2023-01-11T00:10:40.451Z,9.00
2023-01-11T00:13:08.849Z,9.00
2023-01-11T00:15:38.239Z,8.90
2023-01-11T00:18:06.670Z,8.90
2023-01-11T00:20:34.724Z,8.80
2023-01-11T00:23:02.732Z,8.80
2023-01-11T00:25:30.798Z,8.80
2023-01-11T00:28:00.170Z,8.80
2023-01-11T00:30:28.299Z,8.80
2023-01-11T00:32:57.792Z,8.70
2023-01-11T00:35:26.403Z,8.70
2023-01-11T00:37:55.054Z,8.80
2023-01-11T00:40:24.001Z,8.80
2023-01-11T00:43:09.531Z,8.80
2023-01-11T00:45:56.201Z,8.80
2023-01-11T00:48:24.277Z,8.80
2023-01-11T00:50:58.003Z,8.80
2023-01-11T00:53:26.101Z,8.90
2023-01-11T00:55:54.128Z,8.90
2023-01-11T00:58:22.239Z,8.90
2023-01-11T01:00:51.584Z,8.90
2023-01-11T01:03:19.657Z,8.90
2023-01-11T01:05:47.680Z,9.00
2023-01-11T01:08:15.681Z,8.90
2023-01-11T01:10:43.685Z,9.00
2023-01-11T01:13:30.260Z,9.00
2023-01-11T01:16:00.005Z,9.00
2023-01-11T01:18:28.121Z,9.00
2023-01-11T01:20:56.054Z,9.00
2023-01-11T01:23:24.076Z,9.00
2023-01-11T01:25:52.074Z,9.00
2023-01-11T01:28:22.053Z,9.00
2023-01-11T01:30:52.125Z,9.00
2023-01-11T01:33:21.499Z,9.00
2023-01-11T01:35:49.561Z,9.10
2023-01-11T01:38:17.616Z,9.10
2023-01-11T01:40:47.712Z,9.10
2023-01-11T01:43:17.403Z,9.20
2023-01-11T01:45:45.633Z,9.10
2023-01-11T01:48:18.496Z,9.10
2023-01-11T01:50:52.724Z,9.10
2023-01-11T01:53:29.819Z,9.20
2023-01-11T01:56:01.022Z,9.10
2023-01-11T01:58:32.268Z,9.10
2023-01-11T02:01:20.923Z,9.10
2023-01-11T02:03:50.672Z,9.20
2023-01-11T02:06:22.276Z,9.20
2023-01-11T02:08:57.288Z,9.20
2023-01-11T02:11:33.139Z,9.30
2023-01-11T02:14:04.748Z,9.30
2023-01-11T02:16:32.857Z,9.30
2023-01-11T02:19:01.901Z,9.30
2023-01-11T02:21:47.449Z,9.30
2023-01-11T02:24:38.720Z,9.30
2023-01-11T02:27:25.460Z,9.40
2023-01-11T02:30:06.421Z,9.40
2023-01-11T02:32:45.407Z,9.50
2023-01-11T02:35:19.906Z,9.40
2023-01-11T02:37:57.247Z,9.40
2023-01-11T02:40:36.308Z,9.40
2023-01-11T02:43:26.372Z,9.50
2023-01-11T02:46:03.118Z,9.50
2023-01-11T02:48:36.115Z,9.50
2023-01-11T02:51:08.758Z,9.60
2023-01-11T02:53:43.262Z,9.60
2023-01-11T02:56:14.566Z,9.60
2023-01-11T02:58:46.571Z,9.60
2023-01-11T03:01:16.944Z,9.60
2023-01-11T03:03:45.016Z,9.70
2023-01-11T03:06:18.113Z,9.70
2023-01-11T03:12:46.088Z,9.70
2023-01-11T03:15:39.710Z,9.70
2023-01-11T03:18:27.025Z,9.70
2023-01-11T03:21:06.540Z,9.80
2023-01-11T03:23:43.147Z,9.80
2023-01-11T03:26:20.189Z,9.80
2023-01-11T03:28:56.907Z,9.70
2023-01-11T03:31:33.639Z,9.70
2023-01-11T03:34:13.637Z,9.70
2023-01-11T03:36:44.437Z,9.70
2023-01-11T03:39:20.562Z,9.70
2023-01-11T03:41:52.820Z,9.70
2023-01-11T03:44:22.105Z,9.70
2023-01-11T03:46:54.063Z,9.70
2023-01-11T03:49:30.597Z,9.70
2023-01-11T03:52:01.659Z,9.70
2023-01-11T03:54:31.786Z,9.80
2023-01-11T03:57:04.557Z,9.80
2023-01-11T03:59:33.366Z,9.90
2023-01-11T04:02:02.229Z,9.80
2023-01-11T04:04:31.706Z,9.90
2023-01-11T04:06:59.795Z,9.90
2023-01-11T04:09:27.835Z,10.00
2023-01-11T04:11:55.856Z,9.90
2023-01-11T04:14:23.997Z,10.00
2023-01-11T04:16:52.012Z,10.00
2023-01-11T04:19:20.100Z,10.00
2023-01-11T04:21:49.423Z,10.00
2023-01-11T04:24:18.519Z,10.00
2023-01-11T04:26:46.476Z,10.00
2023-01-11T04:29:14.685Z,10.00
2023-01-11T04:31:42.857Z,10.00
2023-01-11T04:34:12.717Z,10.00
2023-01-11T04:36:40.871Z,10.00
2023-01-11T04:39:10.833Z,10.10
2023-01-11T04:41:56.895Z,10.10
2023-01-11T04:44:25.632Z,10.10
2023-01-11T04:46:53.738Z,10.10
2023-01-11T04:49:21.758Z,10.20
2023-01-11T04:51:49.761Z,10.10
2023-01-11T04:54:19.230Z,10.10
2023-01-11T04:56:47.223Z,10.20
2023-01-11T04:59:15.337Z,10.20
2023-01-11T05:01:43.314Z,10.20
2023-01-11T05:04:13.425Z,10.20
2023-01-11T05:06:41.646Z,10.20
2023-01-11T05:09:14.128Z,10.20
2023-01-11T05:11:43.916Z,10.20
2023-01-11T05:14:11.964Z,10.20
2023-01-11T05:16:39.940Z,10.20
2023-01-11T05:19:10.372Z,10.20
2023-01-11T05:21:40.972Z,10.30
2023-01-11T05:24:11.596Z,10.30
2023-01-11T05:26:42.250Z,10.30
2023-01-11T05:29:13.608Z,10.40
2023-01-11T05:31:42.831Z,10.40
2023-01-11T05:34:13.180Z,10.40
2023-01-11T05:36:41.798Z,10.40
2023-01-11T05:39:10.303Z,10.40
2023-01-11T05:41:38.351Z,10.50
2023-01-11T05:44:24.819Z,10.40
2023-01-11T05:46:54.127Z,10.40
2023-01-11T05:49:22.359Z,10.40
2023-01-11T05:51:50.349Z,10.40
2023-01-11T05:54:18.348Z,10.50
2023-01-11T05:56:46.320Z,10.40
2023-01-11T05:59:14.606Z,10.40
2023-01-11T06:01:42.605Z,10.50
2023-01-11T06:04:12.001Z,10.50
2023-01-11T06:06:40.005Z,10.40
2023-01-11T06:09:08.012Z,10.40
2023-01-11T06:11:36.045Z,10.50
2023-01-11T06:14:04.005Z,10.50
2023-01-11T06:16:32.038Z,10.50
2023-01-11T06:19:00.062Z,10.50
2023-01-11T06:21:29.449Z,10.50
2023-01-11T06:23:57.412Z,10.50
2023-01-11T06:26:25.442Z,10.50
2023-01-11T06:28:53.457Z,10.50
2023-01-11T06:31:22.220Z,10.50
2023-01-11T06:33:50.201Z,10.50
2023-01-11T06:36:18.352Z,10.50
2023-01-11T06:38:47.793Z,10.50
2023-01-11T06:41:15.936Z,10.50
2023-01-11T06:43:43.921Z,10.60
2023-01-11T06:46:13.308Z,10.50
2023-01-11T06:48:41.342Z,10.60
2023-01-11T06:51:10.944Z,10.50
2023-01-11T06:53:39.729Z,10.50
2023-01-11T06:56:12.160Z,10.60
2023-01-11T06:58:40.323Z,10.60
2023-01-11T07:01:08.816Z,10.60
2023-01-11T07:03:38.975Z,10.50
2023-01-11T07:06:07.374Z,10.60
2023-01-11T07:08:35.406Z,10.60
2023-01-11T07:11:04.029Z,10.60
2023-01-11T07:13:33.440Z,10.60
2023-01-11T07:16:01.552Z,10.70
2023-01-11T07:18:31.619Z,10.70
2023-01-11T07:20:59.671Z,10.80
2023-01-11T07:23:28.029Z,10.70
2023-01-11T07:25:56.021Z,10.70
2023-01-11T07:28:24.012Z,10.70
2023-01-11T07:30:59.321Z,10.70
2023-01-11T07:33:28.576Z,10.70
2023-01-11T07:35:58.361Z,10.70
2023-01-11T07:38:26.494Z,10.70
2023-01-11T07:40:54.628Z,10.70
2023-01-11T07:43:23.518Z,10.70
2023-01-11T07:45:53.992Z,10.60
2023-01-11T07:48:26.793Z,10.60
2023-01-11T07:50:55.426Z,10.60
2023-01-11T07:53:25.599Z,10.70
2023-01-11T07:55:53.857Z,10.70
2023-01-11T07:58:21.989Z,10.70
2023-01-11T08:00:49.975Z,10.70
2023-01-11T08:03:19.594Z,10.70
2023-01-11T08:05:50.983Z,10.80
2023-01-11T08:08:19.002Z,10.90
2023-01-11T08:10:47.023Z,10.90
2023-01-11T08:13:33.181Z,11.00
2023-01-11T08:16:01.291Z,11.00
2023-01-11T08:18:30.777Z,11.00
2023-01-11T08:20:58.817Z,11.10
2023-01-11T08:23:27.161Z,11.10
2023-01-11T08:25:58.229Z,11.10
2023-01-11T08:28:26.274Z,11.10
2023-01-11T08:30:54.485Z,11.10
2023-01-11T08:33:22.566Z,11.10
2023-01-11T08:35:51.987Z,11.10
2023-01-11T08:38:20.027Z,11.10
2023-01-11T08:40:48.063Z,11.10
2023-01-11T08:43:16.051Z,11.20
2023-01-11T08:45:44.089Z,11.20
2023-01-11T08:48:12.846Z,11.10
2023-01-11T08:50:40.906Z,11.10
2023-01-11T08:53:12.159Z,11.20
2023-01-11T08:55:43.216Z,11.20
2023-01-11T08:58:11.201Z,11.20
2023-01-11T09:00:39.371Z,11.20
2023-01-11T09:03:07.578Z,11.30
2023-01-11T09:05:35.677Z,11.30
2023-01-11T09:08:03.715Z,11.30
2023-01-11T09:10:33.132Z,11.30
2023-01-11T09:13:01.493Z,11.30
2023-01-11T09:15:29.722Z,11.40
2023-01-11T09:17:57.860Z,11.40
2023-01-11T09:20:25.871Z,11.40
2023-01-11T09:22:54.427Z,11.50
2023-01-11T09:25:22.580Z,11.50
2023-01-11T09:27:53.133Z,11.50
2023-01-11T09:30:22.877Z,11.40
2023-01-11T09:32:52.440Z,11.50
2023-01-11T09:35:21.918Z,11.50
2023-01-11T09:37:50.327Z,11.50
2023-01-11T09:40:22.499Z,11.50
2023-01-11T09:42:53.639Z,11.50
2023-01-11T09:45:24.318Z,11.50
2023-01-11T09:48:00.966Z,11.50
2023-01-11T09:50:32.606Z,11.60
2023-01-11T09:53:10.806Z,11.60
2023-01-11T09:55:42.443Z,11.50
2023-01-11T09:58:32.913Z,11.60
2023-01-11T10:01:07.004Z,11.60
2023-01-11T10:04:13.930Z,11.50
2023-01-11T10:06:52.188Z,11.60
2023-01-11T10:18:22.628Z,11.60
2023-01-11T10:18:49.417Z,11.70
2023-01-11T10:21:29.159Z,11.60
2023-01-11T10:24:03.140Z,11.60
2023-01-11T10:26:39.587Z,11.60
2023-01-11T10:29:39.709Z,11.60
2023-01-11T10:32:34.399Z,11.50
2023-01-11T10:35:24.348Z,11.50
2023-01-11T10:38:10.932Z,11.50
2023-01-11T10:40:59.617Z,11.50
2023-01-11T10:43:29.377Z,11.50
2023-01-11T10:46:01.731Z,11.70
2023-01-11T10:48:35.376Z,11.80
2023-01-11T10:51:14.010Z,11.80
2023-01-11T10:53:49.656Z,11.80
2023-01-11T10:56:24.372Z,11.70
2023-01-11T10:59:13.218Z,11.70
2023-01-11T11:01:54.709Z,11.70
2023-01-11T11:04:59.575Z,11.70
2023-01-11T11:07:34.410Z,11.70
2023-01-11T11:10:14.745Z,11.60
2023-01-11T11:12:50.712Z,11.50
2023-01-11T11:15:24.136Z,11.40
2023-01-11T11:17:54.101Z,11.40
2023-01-11T11:20:25.652Z,11.40
2023-01-11T11:22:56.473Z,11.40
2023-01-11T11:25:30.818Z,11.40
2023-01-11T11:28:03.764Z,11.30
2023-01-11T11:30:34.460Z,11.30
2023-01-11T11:33:04.406Z,11.30
2023-01-11T11:35:38.368Z,11.20
2023-01-11T11:38:06.808Z,11.20
2023-01-11T11:40:36.993Z,11.20
2023-01-11T11:43:17.386Z,11.20
2023-01-11T11:45:56.480Z,11.20
2023-01-11T11:48:25.470Z,11.10
2023-01-11T11:50:57.043Z,11.10
2023-01-11T11:53:36.099Z,11.10
2023-01-11T11:56:19.001Z,11.00
2023-01-11T11:58:48.098Z,11.00
2023-01-11T12:01:39.521Z,11.10
2023-01-11T12:04:15.140Z,11.10
2023-01-11T12:06:46.777Z,11.10
2023-01-11T12:09:28.539Z,11.10
2023-01-11T12:11:57.422Z,11.10
2023-01-11T12:14:30.229Z,11.20
2023-01-11T12:17:00.750Z,11.30
2023-01-11T12:19:34.593Z,11.30
2023-01-11T12:22:18.914Z,11.30
2023-01-11T12:24:47.637Z,11.20
2023-01-11T12:27:30.912Z,11.20
2023-01-11T12:30:14.094Z,11.10
2023-01-11T12:33:18.116Z,11.10
2023-01-11T12:35:56.019Z,11.20
2023-01-11T12:38:39.140Z,11.20
2023-01-11T12:41:42.745Z,11.20
2023-01-11T12:44:15.670Z,11.20
2023-01-11T12:46:59.818Z,11.20
2023-01-11T12:49:38.012Z,11.30
2023-01-11T12:52:46.432Z,11.30
2023-01-11T12:55:31.110Z,11.20
2023-01-11T12:58:08.008Z,11.30
2023-01-11T13:01:06.381Z,11.40
2023-01-11T13:04:15.816Z,11.50
2023-01-11T13:06:50.095Z,11.60
2023-01-11T13:09:28.093Z,11.80
2023-01-11T13:12:05.201Z,11.90
2023-01-11T13:14:47.627Z,12.00
2023-01-11T13:17:24.940Z,12.00
2023-01-11T13:20:03.425Z,12.00
2023-01-11T13:22:35.927Z,11.90
2023-01-11T13:25:16.336Z,11.90
2023-01-11T13:27:48.094Z,11.90
2023-01-11T13:30:17.876Z,11.80
2023-01-11T13:32:52.031Z,11.80
2023-01-11T13:35:25.618Z,11.80
2023-01-11T13:37:58.704Z,11.80
2023-01-11T13:40:29.794Z,11.80
2023-01-11T13:43:04.578Z,11.80
2023-01-11T13:45:38.192Z,11.90
2023-01-11T13:48:12.665Z,11.90
2023-01-11T13:50:46.155Z,11.90
2023-01-11T13:53:23.563Z,11.90
2023-01-11T13:55:56.709Z,11.90
2023-01-11T13:58:32.196Z,12.00
2023-01-11T14:01:07.516Z,12.10
2023-01-11T14:03:45.511Z,12.10
2023-01-11T14:06:33.967Z,12.10
2023-01-11T14:09:17.362Z,12.00
2023-01-11T14:11:53.527Z,12.00
2023-01-11T14:14:52.652Z,12.00
2023-01-11T14:17:43.936Z,11.90
2023-01-11T14:20:21.815Z,12.00
2023-01-11T14:22:59.204Z,12.00
2023-01-11T14:25:31.784Z,12.00
2023-01-11T14:28:26.366Z,12.00
2023-01-11T14:31:21.356Z,11.90
2023-01-11T14:34:20.276Z,11.90
2023-01-11T14:37:24.550Z,11.90
2023-01-11T14:40:29.096Z,12.00
2023-01-11T14:43:28.918Z,12.00
2023-01-11T14:46:33.099Z,12.00
2023-01-11T14:49:14.839Z,12.00
2023-01-11T14:51:56.513Z,12.00
2023-01-11T14:54:28.426Z,11.90
2023-01-11T14:56:57.341Z,11.80
2023-01-11T14:59:39.570Z,11.80
2023-01-11T15:02:29.321Z,11.80
2023-01-11T15:05:13.736Z,11.80
2023-01-11T15:07:43.136Z,11.80
2023-01-11T15:10:51.766Z,11.70
2023-01-11T15:13:23.174Z,11.70
2023-01-11T15:16:10.078Z,11.60
2023-01-11T15:18:47.285Z,11.60
2023-01-11T15:21:19.184Z,11.60
2023-01-11T15:23:50.229Z,11.50
2023-01-11T15:26:20.753Z,11.50
2023-01-11T15:28:53.917Z,11.40
2023-01-11T15:31:48.903Z,11.40
2023-01-11T15:34:26.128Z,11.30
2023-01-11T15:37:24.012Z,11.30
2023-01-11T15:39:58.261Z,11.30
2023-01-11T15:43:23.431Z,11.40
2023-01-11T15:46:40.431Z,11.60
2023-01-11T15:49:50.475Z,11.50
2023-01-11T15:52:59.027Z,11.30
2023-01-11T15:56:09.253Z,11.20
2023-01-11T15:59:20.851Z,11.10
2023-01-11T16:02:08.999Z,11.00
2023-01-11T16:04:44.165Z,11.00
2023-01-11T16:07:22.146Z,11.20
2023-01-11T16:10:07.345Z,11.30
2023-01-11T16:12:57.247Z,11.30
2023-01-11T16:15:49.396Z,11.30
2023-01-11T16:18:23.078Z,11.50
2023-01-11T16:21:01.490Z,11.40
2023-01-11T16:23:32.117Z,11.30
2023-01-11T16:26:01.099Z,11.30
2023-01-11T16:28:29.805Z,11.20
2023-01-11T16:30:59.973Z,11.20
2023-01-11T16:33:29.715Z,11.10
2023-01-11T16:36:06.129Z,11.10
2023-01-11T16:38:44.842Z,11.00
2023-01-11T16:41:16.267Z,11.00
2023-01-11T16:43:50.429Z,10.90
2023-01-11T16:47:08.289Z,10.90
2023-01-11T16:49:37.095Z,10.90
2023-01-11T16:52:39.461Z,10.90
2023-01-11T16:55:26.551Z,10.80
2023-01-11T16:57:58.256Z,10.80
2023-01-11T17:00:32.553Z,10.80
2023-01-11T17:03:16.448Z,10.80
2023-01-11T17:06:11.734Z,10.80
2023-01-11T17:08:41.504Z,10.80
2023-01-11T17:11:20.238Z,10.90
2023-01-11T17:14:30.617Z,11.00
2023-01-11T17:17:02.388Z,10.90
2023-01-11T17:19:32.526Z,10.80
2023-01-11T17:22:05.394Z,10.70
2023-01-11T17:24:40.496Z,10.60
2023-01-11T17:27:19.522Z,10.60
2023-01-11T17:29:48.652Z,10.60
2023-01-11T17:32:23.293Z,10.50
2023-01-11T17:34:53.812Z,10.50
2023-01-11T17:37:22.699Z,10.50
2023-01-11T17:39:53.365Z,10.60
2023-01-11T17:42:41.636Z,10.50
2023-01-11T17:45:21.374Z,10.50
2023-01-11T17:47:51.532Z,10.50
2023-01-11T17:50:24.698Z,10.40
2023-01-11T17:53:01.914Z,10.40
2023-01-11T17:55:30.282Z,10.40
2023-01-11T17:58:19.835Z,10.40
2023-01-11T18:01:25.861Z,10.40
2023-01-11T18:03:56.931Z,10.30
2023-01-11T18:06:32.296Z,10.30
2023-01-11T18:09:02.019Z,10.30
2023-01-11T18:11:32.602Z,10.30
2023-01-11T18:14:03.836Z,10.20
2023-01-11T18:16:32.378Z,10.20
2023-01-11T18:19:01.206Z,10.20
2023-01-11T18:21:41.011Z,10.10
2023-01-11T18:24:30.503Z,10.10
2023-01-11T18:27:33.153Z,10.10
2023-01-11T18:30:06.270Z,10.20
2023-01-11T18:32:37.854Z,10.30
2023-01-11T18:35:14.132Z,10.40
2023-01-11T18:37:42.233Z,10.30
2023-01-11T18:40:13.676Z,10.20
2023-01-11T18:42:41.977Z,10.10
2023-01-11T18:45:14.196Z,10.00
2023-01-11T18:47:42.431Z,10.00
2023-01-11T18:50:12.702Z,10.10
2023-01-11T18:52:41.078Z,10.10
2023-01-11T18:55:18.730Z,10.00
2023-01-11T18:57:47.393Z,9.90
2023-01-11T19:00:18.693Z,9.90
2023-01-11T19:02:47.039Z,9.80
2023-01-11T19:05:18.589Z,9.80
2023-01-11T19:07:46.694Z,9.80
2023-01-11T19:10:16.057Z,9.80
2023-01-11T19:12:44.607Z,9.80
2023-01-11T19:15:13.833Z,9.80
2023-01-11T19:17:43.975Z,9.70
2023-01-11T19:20:14.047Z,9.70
2023-01-11T19:22:42.429Z,9.70
2023-01-11T19:25:11.441Z,9.80
2023-01-11T19:27:39.538Z,9.70
2023-01-11T19:30:08.828Z,9.70
2023-01-11T19:32:36.907Z,9.70
2023-01-11T19:35:08.353Z,9.70
2023-01-11T19:37:38.380Z,9.70
2023-01-11T19:40:09.336Z,9.70
2023-01-11T19:42:38.259Z,9.70
2023-01-11T19:45:07.745Z,9.60
2023-01-11T19:47:35.832Z,9.60
2023-01-11T19:50:04.249Z,9.60
2023-01-11T19:52:33.920Z,9.60
2023-01-11T19:55:02.124Z,9.70
2023-01-11T19:57:30.387Z,9.70
2023-01-11T19:59:58.486Z,9.70
2023-01-11T20:02:26.586Z,9.80
2023-01-11T20:04:54.729Z,9.80
2023-01-11T20:07:22.783Z,9.80
2023-01-11T20:09:52.224Z,9.80
2023-01-11T20:12:20.352Z,9.70
2023-01-11T20:14:48.519Z,9.70
2023-01-11T20:17:20.894Z,9.60
2023-01-11T20:19:56.641Z,9.60
2023-01-11T20:22:25.143Z,9.60
2023-01-11T20:24:55.948Z,9.60
2023-01-11T20:27:26.943Z,9.60
2023-01-11T20:29:55.166Z,9.60
2023-01-11T20:32:40.246Z,9.50
2023-01-11T20:35:10.738Z,9.40
2023-01-11T20:37:38.866Z,9.50
2023-01-11T20:40:11.833Z,9.50
2023-01-11T20:42:41.575Z,9.50
2023-01-11T20:45:10.940Z,9.50
2023-01-11T20:47:39.242Z,9.60
2023-01-11T20:50:08.445Z,9.60
2023-01-11T20:52:36.617Z,9.60
2023-01-11T20:55:05.178Z,9.60
2023-01-11T20:57:34.618Z,9.60
2023-01-11T21:00:02.751Z,9.60
2023-01-11T21:02:30.953Z,9.60
2023-01-11T21:04:59.101Z,9.60
2023-01-11T21:07:27.310Z,9.60
2023-01-11T21:09:55.409Z,9.60
2023-01-11T21:12:23.631Z,9.60
2023-01-11T21:14:53.121Z,9.60
2023-01-11T21:17:21.207Z,9.70
2023-01-11T21:19:50.426Z,9.70
2023-01-11T21:22:18.568Z,9.70
2023-01-11T21:24:48.351Z,9.70
2023-01-11T21:27:16.531Z,9.80
2023-01-11T21:29:44.684Z,9.80
2023-01-11T21:32:14.025Z,9.90
2023-01-11T21:34:42.163Z,9.90
2023-01-11T21:37:10.249Z,9.90
2023-01-11T21:39:38.367Z,9.90
2023-01-11T21:42:06.644Z,9.90
2023-01-11T21:44:35.501Z,9.90
2023-01-11T21:47:09.860Z,9.90
2023-01-11T21:49:39.248Z,10.00
2023-01-11T21:52:07.500Z,10.00
2023-01-11T21:54:35.599Z,10.00
2023-01-11T21:57:03.691Z,10.00
2023-01-11T21:59:33.655Z,10.10
2023-01-11T22:02:01.789Z,10.20
2023-01-11T22:04:30.003Z,10.10
2023-01-11T22:07:00.427Z,10.10
2023-01-11T22:09:28.778Z,10.10
2023-01-11T22:11:56.845Z,10.10
2023-01-11T22:14:25.233Z,10.30
2023-01-11T22:16:53.885Z,10.30
2023-01-11T22:19:21.946Z,10.30
2023-01-11T22:21:49.997Z,10.20
2023-01-11T22:24:20.732Z,10.20
2023-01-11T22:26:48.771Z,10.20
2023-01-11T22:29:16.918Z,10.20
2023-01-11T22:31:48.833Z,10.20
2023-01-11T22:34:17.393Z,10.20
2023-01-11T22:36:46.030Z,10.30
2023-01-11T22:39:15.063Z,10.20
2023-01-11T22:41:45.882Z,10.30
2023-01-11T22:44:14.706Z,10.30
2023-01-11T22:46:43.344Z,10.30
2023-01-11T22:49:12.217Z,10.40
2023-01-11T22:51:41.334Z,10.40
2023-01-11T22:54:15.725Z,10.40
2023-01-11T22:56:45.305Z,10.40
2023-01-11T22:59:13.312Z,10.50
2023-01-11T23:01:44.160Z,10.50
2023-01-11T23:04:14.889Z,10.50
2023-01-11T23:06:43.821Z,10.50
2023-01-11T23:09:15.956Z,10.50
2023-01-11T23:12:04.513Z,10.50
2023-01-11T23:14:33.704Z,10.50
2023-01-11T23:17:04.373Z,10.50
2023-01-11T23:19:33.168Z,10.50
2023-01-11T23:22:01.304Z,10.50
2023-01-11T23:24:29.287Z,10.50
2023-01-11T23:26:58.996Z,10.50
2023-01-11T23:29:27.145Z,10.50
2023-01-11T23:31:55.264Z,10.50
2023-01-11T23:34:23.358Z,10.60
2023-01-11T23:36:51.346Z,10.60
2023-01-11T23:39:19.663Z,10.60
2023-01-11T23:42:05.482Z,10.50
2023-01-11T23:44:36.158Z,10.50
2023-01-11T23:47:21.512Z,10.50
2023-01-11T23:49:50.514Z,10.50
2023-01-11T23:52:19.440Z,10.50
2023-01-11T23:54:48.038Z,10.50
2023-01-11T23:57:17.368Z,10.50
2023-01-11T23:59:46.940Z,10.50
